Time;durP1;ratioP1;P1;durP2;ratioP2;P2;SDS_P1;SDS_P2;PMS_P1;PMS_P2;Temp;Humidity;BMP_temperature;BMP_pressure;BME280_temperature;BME280_humidity;BME280_pressure;Samples;Min_cycle;Max_cycle;Signal;HPM_P1;HPM_P2
2022/12/22 03:26:47;;;;;;;93.10;39.00;;;8.20;99.90;;;;;;5054661;28;20049;-70
2022/12/22 03:29:13;;;;;;;99.95;39.67;;;8.20;99.90;;;;;;5054161;28;20052;-69
2022/12/22 03:31:39;;;;;;;99.22;38.92;;;8.20;99.90;;;;;;5053355;28;20375;-69
2022/12/22 03:34:05;;;;;;;97.82;38.55;;;8.20;99.90;;;;;;5051643;28;20064;-69
2022/12/22 03:36:30;;;;;;;94.10;39.35;;;8.20;99.90;;;;;;5052455;28;20048;-68
2022/12/22 03:38:56;;;;;;;92.97;39.80;;;8.20;99.90;;;;;;5064946;28;20040;-69
2022/12/22 03:46:50;;;;;;;93.63;38.03;;;8.20;99.90;;;;;;5045511;28;20102;-70
2022/12/22 03:49:18;;;;;;;88.95;37.78;;;8.20;99.90;;;;;;5032772;28;20049;-69
2022/12/22 03:51:49;;;;;;;85.65;36.38;;;8.20;99.90;;;;;;5057009;28;20102;-69
2022/12/22 03:54:20;;;;;;;89.53;35.17;;;8.20;99.90;;;;;;5083602;28;20461;-69
2022/12/22 03:56:46;;;;;;;88.80;36.08;;;8.20;99.90;;;;;;5052486;28;20466;-76
2022/12/22 03:59:12;;;;;;;85.78;37.17;;;8.20;99.90;;;;;;5049042;28;20041;-69
2022/12/22 04:01:48;;;;;;;84.90;35.65;;;8.20;99.90;;;;;;5050442;28;20124;-70
2022/12/22 04:04:15;;;;;;;94.60;36.10;;;8.20;99.90;;;;;;5052876;28;20079;-69
2022/12/22 04:06:42;;;;;;;82.72;36.35;;;8.20;99.90;;;;;;5047626;28;20053;-69
2022/12/22 04:09:07;;;;;;;89.68;35.42;;;8.20;99.90;;;;;;5049618;28;20659;-70
2022/12/22 04:14:18;;;;;;;89.40;34.17;;;8.20;99.90;;;;;;5051589;28;20072;-68
2022/12/22 04:16:44;;;;;;;89.22;35.17;;;8.10;99.90;;;;;;5055380;28;20391;-69
2022/12/22 04:19:09;;;;;;;87.93;34.85;;;8.20;99.90;;;;;;5052701;28;20041;-69
2022/12/22 04:21:36;;;;;;;79.90;34.22;;;8.20;99.90;;;;;;5053232;28;20112;-69
2022/12/22 04:24:02;;;;;;;92.03;34.85;;;8.20;99.90;;;;;;5051189;28;20049;-69
2022/12/22 04:26:28;;;;;;;85.53;33.58;;;8.20;99.90;;;;;;5044888;28;20525;-69
2022/12/22 04:28:54;;;;;;;89.60;33.70;;;8.10;99.90;;;;;;5052021;28;20052;-69
2022/12/22 04:31:21;;;;;;;87.20;34.17;;;8.20;99.90;;;;;;5051556;28;20122;-69
2022/12/22 04:33:47;;;;;;;85.88;35.80;;;8.20;99.90;;;;;;5051742;28;20113;-69
2022/12/22 04:36:13;;;;;;;93.32;37.35;;;8.20;99.90;;;;;;5051969;28;20447;-69
2022/12/22 04:38:40;;;;;;;87.40;35.38;;;8.10;99.90;;;;;;5051774;28;20163;-68
2022/12/22 04:41:06;;;;;;;98.32;37.00;;;8.20;99.90;;;;;;5056270;28;20123;-69
2022/12/22 04:43:32;;;;;;;91.50;35.78;;;8.10;99.90;;;;;;5051807;28;20049;-69
2022/12/22 04:45:58;;;;;;;94.97;35.58;;;8.10;99.90;;;;;;5050635;28;20513;-70
2022/12/22 04:48:25;;;;;;;93.20;37.08;;;8.10;99.90;;;;;;5050583;28;20045;-69
2022/12/22 04:50:53;;;;;;;83.65;32.83;;;8.10;99.90;;;;;;5052524;28;20077;-71
2022/12/22 04:53:20;;;;;;;91.32;34.33;;;8.10;99.90;;;;;;5035836;28;20055;-69
2022/12/22 04:55:50;;;;;;;85.07;34.53;;;8.10;99.90;;;;;;5052179;28;20044;-69
2022/12/22 04:58:16;;;;;;;88.68;35.53;;;8.10;99.90;;;;;;5050499;28;20076;-69
2022/12/22 05:00:42;;;;;;;85.97;34.47;;;8.10;99.90;;;;;;5051169;28;20504;-69
2022/12/22 05:03:08;;;;;;;85.35;34.83;;;8.00;99.90;;;;;;5050632;28;20049;-69
2022/12/22 05:05:34;;;;;;;88.03;35.30;;;8.00;99.90;;;;;;5050760;28;20375;-69
2022/12/22 05:08:00;;;;;;;85.32;34.63;;;8.00;99.90;;;;;;5051288;28;20040;-70
2022/12/22 05:10:26;;;;;;;83.00;33.13;;;8.00;99.90;;;;;;5084188;28;20043;-69
2022/12/22 05:12:54;;;;;;;77.03;32.30;;;8.00;99.90;;;;;;5064806;28;20048;-69
2022/12/22 05:15:24;;;;;;;84.35;30.98;;;8.00;99.90;;;;;;5051685;28;20051;-69
2022/12/22 05:17:50;;;;;;;84.95;31.63;;;8.00;99.90;;;;;;5051607;28;20398;-69
2022/12/22 05:20:17;;;;;;;78.82;31.35;;;8.00;99.90;;;;;;5050988;28;20048;-68
2022/12/22 05:22:43;;;;;;;76.63;29.65;;;8.00;99.90;;;;;;5052081;28;20449;-71
2022/12/22 05:25:09;;;;;;;79.25;31.17;;;8.00;99.90;;;;;;5049909;28;20420;-69
2022/12/22 05:27:35;;;;;;;78.55;29.85;;;8.00;99.90;;;;;;5050500;28;20155;-69
2022/12/22 05:30:00;;;;;;;80.38;31.58;;;8.00;99.90;;;;;;5039259;28;20083;-76
2022/12/22 05:32:26;;;;;;;75.63;29.70;;;7.40;99.90;;;;;;5054720;28;20053;-69
2022/12/22 05:34:52;;;;;;;84.13;31.95;;;8.00;99.90;;;;;;5050795;28;20132;-69
2022/12/22 05:37:17;;;;;;;72.68;28.77;;;8.00;99.90;;;;;;5049936;28;20044;-69
2022/12/22 05:39:43;;;;;;;70.68;26.05;;;8.00;99.90;;;;;;5051361;28;20098;-69
2022/12/22 05:42:09;;;;;;;67.32;27.95;;;8.00;99.90;;;;;;5051028;28;20059;-69
2022/12/22 05:44:35;;;;;;;61.45;26.42;;;8.00;99.90;;;;;;5033637;28;20039;-68
2022/12/22 05:47:00;;;;;;;57.50;24.10;;;7.90;99.90;;;;;;5051589;28;20399;-70
2022/12/22 05:49:26;;;;;;;57.28;23.73;;;7.90;99.90;;;;;;5050234;28;20045;-70
2022/12/22 05:51:53;;;;;;;56.13;25.77;;;7.90;99.90;;;;;;5050127;28;20128;-69
2022/12/22 05:54:19;;;;;;;59.90;24.42;;;7.90;99.90;;;;;;5050827;28;20056;-69
2022/12/22 05:56:44;;;;;;;57.28;25.17;;;7.90;99.90;;;;;;5050244;28;20036;-69
2022/12/22 05:59:11;;;;;;;54.83;23.33;;;7.80;99.90;;;;;;5049909;28;20177;-69
2022/12/22 06:01:37;;;;;;;60.30;25.35;;;7.90;99.90;;;;;;5050691;28;20041;-69
2022/12/22 06:04:03;;;;;;;51.13;22.55;;;7.90;99.90;;;;;;5051130;28;20055;-69
2022/12/22 06:06:29;;;;;;;51.90;21.10;;;7.90;99.90;;;;;;5050250;28;20041;-69
2022/12/22 06:08:54;;;;;;;44.30;20.50;;;7.90;99.90;;;;;;5050957;28;20053;-69
2022/12/22 06:11:20;;;;;;;45.83;21.20;;;7.80;99.90;;;;;;5049064;28;20120;-69
2022/12/22 06:13:46;;;;;;;48.10;20.40;;;7.80;99.90;;;;;;5049895;28;20048;-70
2022/12/22 06:16:12;;;;;;;45.97;19.88;;;7.70;99.90;;;;;;5051629;28;20420;-69
2022/12/22 06:18:37;;;;;;;41.17;19.63;;;7.70;99.90;;;;;;5049490;28;20044;-69
2022/12/22 06:21:03;;;;;;;46.17;20.23;;;7.70;99.90;;;;;;5050623;28;20535;-70
2022/12/22 06:23:29;;;;;;;49.53;19.75;;;7.60;99.90;;;;;;5048022;28;20506;-69
2022/12/22 06:26:01;;;;;;;48.17;21.15;;;7.50;99.90;;;;;;5052808;28;20082;-69
2022/12/22 06:28:27;;;;;;;44.53;21.38;;;7.50;99.90;;;;;;5054630;28;20786;-73
2022/12/22 06:30:53;;;;;;;45.17;21.15;;;7.40;99.90;;;;;;5042965;28;20096;-69
2022/12/22 06:33:19;;;;;;;46.90;21.30;;;7.40;99.90;;;;;;5048456;28;20051;-70
2022/12/22 06:35:45;;;;;;;44.75;20.40;;;7.30;99.90;;;;;;5053266;28;20101;-69
2022/12/22 06:38:11;;;;;;;47.10;22.08;;;7.30;99.90;;;;;;5049601;28;20045;-73
2022/12/22 06:40:37;;;;;;;54.97;22.70;;;7.20;99.90;;;;;;5051102;28;20449;-69
2022/12/22 06:43:08;;;;;;;51.25;22.38;;;7.20;99.90;;;;;;5049192;28;20049;-70
2022/12/22 06:45:35;;;;;;;61.97;25.35;;;7.20;99.90;;;;;;5050284;28;20051;-71
2022/12/22 06:48:01;;;;;;;61.35;25.00;;;7.10;99.90;;;;;;5081214;28;20040;-69
2022/12/22 06:50:27;;;;;;;61.13;26.02;;;7.10;99.90;;;;;;5048826;28;20124;-68
2022/12/22 06:52:52;;;;;;;57.15;25.35;;;7.00;99.90;;;;;;5049777;28;20055;-70
2022/12/22 06:55:18;;;;;;;72.07;27.45;;;7.00;99.90;;;;;;5048820;28;20044;-68
2022/12/22 06:57:44;;;;;;;73.57;29.23;;;7.00;99.90;;;;;;5062540;28;20045;-69
2022/12/22 07:00:10;;;;;;;80.88;30.90;;;7.10;99.90;;;;;;5044284;28;20053;-68
2022/12/22 07:02:35;;;;;;;85.50;30.33;;;7.00;99.90;;;;;;5029974;28;20135;-69
2022/12/22 07:05:01;;;;;;;86.20;32.25;;;7.10;99.90;;;;;;5040478;28;20129;-70
2022/12/22 07:07:27;;;;;;;95.03;30.63;;;7.10;99.90;;;;;;5044987;28;20448;-69
2022/12/22 07:09:54;;;;;;;96.40;34.75;;;7.10;99.90;;;;;;5049042;28;20052;-69
2022/12/22 07:12:20;;;;;;;97.78;31.67;;;7.10;99.90;;;;;;5080715;28;20124;-71
2022/12/22 07:14:46;;;;;;;87.97;29.33;;;7.10;99.90;;;;;;5049349;28;20116;-71
2022/12/22 07:17:11;;;;;;;92.13;30.20;;;7.10;99.90;;;;;;5032771;28;20515;-69
2022/12/22 07:19:37;;;;;;;79.13;29.00;;;7.10;99.90;;;;;;5048053;28;20063;-68
2022/12/22 07:22:03;;;;;;;69.20;25.33;;;7.10;99.90;;;;;;5043582;28;20053;-68
2022/12/22 07:24:29;;;;;;;59.25;23.70;;;7.00;99.90;;;;;;5046792;28;20049;-72
2022/12/22 07:26:54;;;;;;;58.20;22.70;;;7.00;99.90;;;;;;5042979;28;20120;-69
2022/12/22 07:29:20;;;;;;;55.00;23.02;;;6.90;99.90;;;;;;5047980;28;20056;-72
2022/12/22 07:31:46;;;;;;;58.30;22.58;;;6.90;99.90;;;;;;5045226;28;20130;-68
2022/12/22 07:34:12;;;;;;;53.38;21.98;;;6.80;99.90;;;;;;5050034;28;20454;-68
2022/12/22 07:36:38;;;;;;;57.78;22.90;;;6.80;99.90;;;;;;5046440;28;20287;-69
2022/12/22 07:39:04;;;;;;;66.75;24.73;;;6.80;99.90;;;;;;5048848;28;20720;-69
2022/12/22 07:44:13;;;;;;;49.58;20.83;;;6.70;99.90;;;;;;5041416;28;20064;-68
2022/12/22 07:46:39;;;;;;;51.38;20.95;;;6.70;99.90;;;;;;5037502;28;20295;-71
2022/12/22 07:51:51;;;;;;;53.33;23.70;;;6.70;99.90;;;;;;5044576;28;20045;-66
2022/12/22 07:54:17;;;;;;;53.60;22.95;;;6.60;99.90;;;;;;5043529;28;20053;-67
2022/12/22 07:56:46;;;;;;;50.50;21.38;;;6.60;99.90;;;;;;5048305;28;20050;-67
2022/12/22 07:59:11;;;;;;;50.40;21.45;;;6.60;99.90;;;;;;5046776;28;20064;-68
2022/12/22 08:01:39;;;;;;;47.58;19.88;;;6.60;99.90;;;;;;5050829;28;20071;-69
2022/12/22 08:04:04;;;;;;;50.50;21.27;;;6.60;99.90;;;;;;5040583;28;20049;-67
2022/12/22 08:06:31;;;;;;;52.35;22.85;;;6.60;99.90;;;;;;5039004;28;20045;-68
2022/12/22 08:08:57;;;;;;;51.58;21.77;;;6.60;99.90;;;;;;5051769;28;20041;-67
2022/12/22 08:11:23;;;;;;;58.35;24.17;;;6.60;99.90;;;;;;5061549;28;20640;-79
2022/12/22 08:13:48;;;;;;;50.63;23.25;;;6.50;99.90;;;;;;5035237;28;20391;-68
2022/12/22 08:16:15;;;;;;;59.13;25.23;;;6.50;99.90;;;;;;5047117;28;20077;-69
2022/12/22 08:18:41;;;;;;;57.33;25.85;;;6.50;99.90;;;;;;5033540;28;20048;-68
2022/12/22 08:21:07;;;;;;;53.22;23.70;;;6.60;99.90;;;;;;5062569;28;20041;-71
2022/12/22 08:23:33;;;;;;;57.70;23.55;;;6.60;99.90;;;;;;5050192;28;20049;-69
2022/12/22 08:26:09;;;;;;;52.25;21.52;;;6.60;99.90;;;;;;5040652;28;20119;-68
2022/12/22 08:28:48;;;;;;;48.28;19.48;;;6.70;99.90;;;;;;5049330;28;20045;-70
2022/12/22 08:31:14;;;;;;;50.17;18.65;;;6.60;99.90;;;;;;5050016;28;20057;-68
2022/12/22 08:33:40;;;;;;;43.55;18.38;;;6.60;99.90;;;;;;5049321;28;20186;-71
2022/12/22 08:36:08;;;;;;;49.15;18.75;;;6.60;99.90;;;;;;5045127;28;20042;-68
2022/12/22 08:38:35;;;;;;;47.38;20.38;;;6.60;99.90;;;;;;5044481;28;20037;-68
2022/12/22 08:41:01;;;;;;;54.03;22.55;;;6.60;99.90;;;;;;5040041;28;20046;-68
2022/12/22 08:43:27;;;;;;;98.88;28.15;;;6.60;99.90;;;;;;5053195;28;20059;-68
2022/12/22 08:45:53;;;;;;;71.70;27.27;;;6.60;99.90;;;;;;5055029;28;20381;-68
2022/12/22 08:48:19;;;;;;;99.53;29.58;;;6.50;99.90;;;;;;5042901;28;20059;-69
2022/12/22 08:50:45;;;;;;;102.95;33.20;;;6.50;99.90;;;;;;5022041;28;20049;-74
2022/12/22 08:53:10;;;;;;;106.88;33.50;;;6.50;99.90;;;;;;5049182;28;20045;-68
2022/12/22 08:55:36;;;;;;;88.45;33.08;;;6.50;99.90;;;;;;5034996;28;20052;-70
2022/12/22 08:58:02;;;;;;;73.97;28.48;;;6.60;99.90;;;;;;5037678;28;20098;-71
2022/12/22 09:00:27;;;;;;;66.57;27.65;;;6.50;99.90;;;;;;5059257;28;20051;-68
2022/12/22 09:02:53;;;;;;;78.45;27.65;;;6.50;99.90;;;;;;5067813;28;20139;-68
2022/12/22 09:05:19;;;;;;;64.78;24.23;;;6.50;99.90;;;;;;5040816;28;20048;-68
2022/12/22 09:07:47;;;;;;;60.92;20.85;;;6.50;99.90;;;;;;5039326;28;20045;-69
2022/12/22 09:10:13;;;;;;;62.25;20.67;;;6.60;99.90;;;;;;5045992;28;20072;-73
2022/12/22 09:12:39;;;;;;;47.40;20.23;;;6.50;99.90;;;;;;5041247;28;20044;-69
2022/12/22 09:15:07;;;;;;;59.50;21.10;;;6.60;99.90;;;;;;5037078;28;20051;-69
2022/12/22 09:17:34;;;;;;;47.80;16.90;;;6.60;99.90;;;;;;5033803;28;20053;-70
2022/12/22 09:20:01;;;;;;;43.65;18.38;;;6.60;99.90;;;;;;5042129;28;20124;-70
2022/12/22 09:22:27;;;;;;;43.95;16.77;;;6.60;99.90;;;;;;5043351;28;20132;-71
2022/12/22 09:24:52;;;;;;;33.70;15.20;;;6.60;99.90;;;;;;5050441;28;20592;-70
2022/12/22 09:27:18;;;;;;;41.90;15.05;;;6.60;99.90;;;;;;5033838;28;20135;-71
2022/12/22 09:29:44;;;;;;;42.63;14.60;;;6.60;99.90;;;;;;5047297;28;20399;-70
2022/12/22 09:32:10;;;;;;;35.45;14.02;;;6.70;99.90;;;;;;5047458;28;20084;-72
2022/12/22 09:34:35;;;;;;;32.40;14.70;;;6.60;99.90;;;;;;5051056;28;20391;-70
2022/12/22 09:37:01;;;;;;;33.97;13.07;;;6.70;99.90;;;;;;5030628;28;20395;-71
2022/12/22 09:39:27;;;;;;;23.38;12.75;;;6.70;99.90;;;;;;5043699;28;20499;-82
2022/12/22 09:41:55;;;;;;;24.40;12.85;;;6.60;99.90;;;;;;5048828;28;20124;-70
2022/12/22 09:44:39;;;;;;;26.35;14.70;;;6.60;99.90;;;;;;5036352;28;20049;-69
2022/12/22 09:47:26;;;;;;;25.20;12.70;;;6.60;99.90;;;;;;5031184;28;20128;-70
2022/12/22 09:49:54;;;;;;;28.95;13.90;;;6.60;99.90;;;;;;5030611;28;20084;-70
2022/12/22 09:52:42;;;;;;;24.27;12.45;;;6.70;99.90;;;;;;5043788;28;20040;-70
2022/12/22 09:55:23;;;;;;;25.63;14.35;;;6.70;99.90;;;;;;5036024;28;20069;-68
2022/12/22 09:57:49;;;;;;;25.70;13.80;;;6.80;99.90;;;;;;5031751;28;20047;-70
2022/12/22 10:00:17;;;;;;;23.55;11.32;;;6.80;99.90;;;;;;5066892;28;20367;-71
2022/12/22 10:03:03;;;;;;;25.75;11.13;;;6.90;99.90;;;;;;5040832;28;20306;-70
2022/12/22 10:05:50;;;;;;;18.27;9.50;;;7.00;99.90;;;;;;5038673;28;20160;-72
2022/12/22 10:08:24;;;;;;;19.30;10.38;;;7.00;99.90;;;;;;5046756;28;20139;-71
2022/12/22 10:10:54;;;;;;;19.38;10.23;;;7.20;99.90;;;;;;5047556;28;20052;-70
2022/12/22 10:13:20;;;;;;;19.60;10.02;;;7.20;99.90;;;;;;5052432;28;20502;-67
2022/12/22 10:15:46;;;;;;;19.02;9.00;;;7.30;99.90;;;;;;5043843;28;20053;-67
2022/12/22 10:18:13;;;;;;;23.92;9.77;;;7.30;99.90;;;;;;5046061;28;20048;-68
2022/12/22 10:20:40;;;;;;;20.75;9.60;;;7.30;99.90;;;;;;5037030;28;20120;-68
2022/12/22 10:23:23;;;;;;;17.17;9.45;;;7.40;99.90;;;;;;5048338;28;20072;-68
2022/12/22 10:25:55;;;;;;;20.67;9.90;;;7.50;99.90;;;;;;5044209;28;20402;-69
2022/12/22 10:28:27;;;;;;;22.08;9.20;;;7.50;99.90;;;;;;5041609;28;20124;-68
2022/12/22 10:31:12;;;;;;;17.70;9.88;;;7.60;99.90;;;;;;5045442;28;20407;-68
2022/12/22 10:33:38;;;;;;;20.92;9.02;;;7.60;99.90;;;;;;5049162;28;20049;-69
2022/12/22 10:36:05;;;;;;;16.05;8.45;;;7.60;99.90;;;;;;5078200;28;20048;-69
2022/12/22 10:38:33;;;;;;;17.10;8.85;;;7.70;99.90;;;;;;5033513;28;20096;-68
2022/12/22 10:41:23;;;;;;;15.50;8.73;;;7.70;99.90;;;;;;5073559;28;20133;-69
2022/12/22 10:43:52;;;;;;;18.13;8.77;;;7.70;99.90;;;;;;5041285;28;20061;-68
2022/12/22 10:46:27;;;;;;;18.52;8.07;;;7.70;99.90;;;;;;5044215;28;20043;-70
2022/12/22 10:49:06;;;;;;;21.23;8.85;;;7.80;99.90;;;;;;5035082;28;20062;-66
2022/12/22 10:51:32;;;;;;;12.82;7.93;;;7.80;99.90;;;;;;5033803;28;20051;-68
2022/12/22 10:53:58;;;;;;;16.50;7.75;;;7.90;99.90;;;;;;5037766;28;20040;-67
2022/12/22 10:56:32;;;;;;;16.00;8.40;;;7.90;99.90;;;;;;5074563;28;20510;-67
2022/12/22 10:59:00;;;;;;;20.42;8.20;;;8.00;99.90;;;;;;5068976;28;20400;-67
2022/12/22 11:01:32;;;;;;;16.08;9.27;;;8.00;99.90;;;;;;5045497;28;20059;-67
2022/12/22 11:04:16;;;;;;;17.98;8.70;;;8.00;99.90;;;;;;5036714;28;20494;-66
2022/12/22 11:06:43;;;;;;;17.23;7.70;;;8.00;99.90;;;;;;5048702;28;20057;-68
2022/12/22 11:09:10;;;;;;;15.00;7.32;;;8.00;99.90;;;;;;5048300;28;20372;-69
2022/12/22 11:11:39;;;;;;;15.50;8.27;;;8.00;99.90;;;;;;5032328;28;20534;-69
2022/12/22 11:14:54;;;;;;;16.27;7.68;;;8.10;99.90;;;;;;5070863;28;20070;-66
2022/12/22 11:17:30;;;;;;;18.65;7.45;;;8.10;99.90;;;;;;5000093;28;20050;-68
2022/12/22 11:20:17;;;;;;;16.70;8.15;;;8.10;99.90;;;;;;5075640;28;20048;-68
2022/12/22 11:22:51;;;;;;;17.42;8.32;;;8.10;99.90;;;;;;5075354;28;20101;-70
2022/12/22 11:25:44;;;;;;;20.75;8.13;;;8.20;99.90;;;;;;5041179;28;20045;-68
2022/12/22 11:28:34;;;;;;;19.58;7.25;;;8.20;99.90;;;;;;5054407;28;20043;-66
2022/12/22 11:31:11;;;;;;;15.35;7.28;;;8.20;99.90;;;;;;5030822;28;20071;-66
2022/12/22 11:33:48;;;;;;;18.35;7.35;;;8.20;99.90;;;;;;5050520;28;20106;-66
2022/12/22 11:36:35;;;;;;;19.65;7.72;;;8.20;99.90;;;;;;5049571;28;20099;-66
2022/12/22 11:39:11;;;;;;;15.73;6.45;;;8.30;99.90;;;;;;5040734;28;20048;-66
2022/12/22 11:41:51;;;;;;;17.23;7.53;;;8.30;99.90;;;;;;5040204;28;20073;-65
2022/12/22 11:44:38;;;;;;;13.77;6.25;;;8.30;99.90;;;;;;5053262;28;20053;-66
2022/12/22 11:47:39;;;;;;;13.23;6.82;;;8.30;99.90;;;;;;5052661;28;20041;-67
2022/12/22 11:50:41;;;;;;;13.80;5.88;;;8.30;99.90;;;;;;5030074;28;20203;-68
2022/12/22 11:53:41;;;;;;;17.02;6.25;;;8.30;99.90;;;;;;5053074;28;20037;-68
2022/12/22 11:56:22;;;;;;;10.27;5.13;;;8.30;99.90;;;;;;5047763;28;20057;-67
2022/12/22 11:59:21;;;;;;;13.13;5.70;;;8.30;99.90;;;;;;5049452;28;20049;-67
2022/12/22 12:02:14;;;;;;;18.85;5.60;;;8.30;99.90;;;;;;5053476;28;20415;-67
2022/12/22 12:04:45;;;;;;;15.48;5.88;;;8.30;99.90;;;;;;5053344;28;20053;-68
2022/12/22 12:07:40;;;;;;;11.57;5.10;;;8.40;99.90;;;;;;5052498;28;20045;-68
2022/12/22 12:10:21;;;;;;;12.70;4.95;;;8.20;99.90;;;;;;5051587;28;21923;-68
2022/12/22 12:13:27;;;;;;;14.02;4.88;;;8.40;99.90;;;;;;5042408;28;20045;-67
2022/12/22 12:16:08;;;;;;;12.70;5.60;;;8.40;99.90;;;;;;5017301;28;20141;-67
2022/12/22 12:18:48;;;;;;;10.75;5.15;;;8.50;99.90;;;;;;5034840;28;20391;-68
2022/12/22 12:21:27;;;;;;;13.18;5.10;;;8.50;99.90;;;;;;5055759;28;20037;-68
2022/12/22 12:24:09;;;;;;;12.02;5.15;;;8.50;99.90;;;;;;5033568;28;20080;-68
2022/12/22 12:26:44;;;;;;;14.40;4.90;;;8.50;99.90;;;;;;5033407;28;20072;-67
2022/12/22 12:29:27;;;;;;;18.02;5.18;;;8.50;99.90;;;;;;5046027;28;20088;-66
2022/12/22 12:32:08;;;;;;;15.38;5.05;;;8.50;99.90;;;;;;5068146;28;20076;-66
2022/12/22 12:34:38;;;;;;;12.20;4.22;;;8.60;99.90;;;;;;5050153;28;20049;-65
2022/12/22 12:37:37;;;;;;;12.05;3.78;;;8.60;99.90;;;;;;5052045;28;20148;-68
2022/12/22 12:40:05;;;;;;;19.00;5.50;;;8.60;99.90;;;;;;5039572;28;20128;-74
2022/12/22 12:42:38;;;;;;;13.20;3.72;;;8.60;99.90;;;;;;5053851;28;20048;-66
2022/12/22 12:45:34;;;;;;;14.32;4.28;;;8.60;99.90;;;;;;5039658;28;20045;-74
2022/12/22 12:48:27;;;;;;;15.07;4.15;;;8.60;99.90;;;;;;5049283;28;20092;-67
2022/12/22 12:50:55;;;;;;;15.30;3.97;;;8.60;99.90;;;;;;5037774;28;20057;-66
2022/12/22 12:53:26;;;;;;;17.13;4.97;;;8.60;99.90;;;;;;5044664;28;20048;-66
2022/12/22 12:55:57;;;;;;;12.95;3.80;;;8.50;99.90;;;;;;5039710;28;20037;-66
2022/12/22 12:58:36;;;;;;;17.63;4.93;;;8.50;99.90;;;;;;5036286;28;20142;-68
2022/12/22 13:01:09;;;;;;;17.42;4.95;;;8.50;99.90;;;;;;5040592;28;20044;-65
2022/12/22 13:03:40;;;;;;;14.60;4.70;;;8.50;99.90;;;;;;5045343;28;20107;-66
2022/12/22 13:06:49;;;;;;;20.55;4.70;;;8.40;99.90;;;;;;5037825;28;20044;-66
2022/12/22 13:09:20;;;;;;;10.43;3.70;;;8.50;99.90;;;;;;5023794;28;20098;-65
2022/12/22 13:11:48;;;;;;;15.65;4.35;;;8.40;99.90;;;;;;5036865;28;20155;-65
2022/12/22 13:15:00;;;;;;;15.65;4.97;;;8.40;99.90;;;;;;5048874;28;20354;-66
2022/12/22 13:17:48;;;;;;;14.65;5.00;;;8.40;99.90;;;;;;5073280;28;20671;-66
2022/12/22 13:20:19;;;;;;;14.13;4.47;;;8.50;99.90;;;;;;5049438;28;20045;-66
2022/12/22 13:22:50;;;;;;;21.23;4.53;;;8.50;99.90;;;;;;5029585;28;20052;-66
2022/12/22 13:25:17;;;;;;;13.75;4.82;;;8.50;99.90;;;;;;5045305;28;20495;-67
2022/12/22 13:27:43;;;;;;;14.23;5.18;;;8.50;99.90;;;;;;5061155;28;20105;-69
2022/12/22 13:30:18;;;;;;;15.55;4.63;;;8.50;99.90;;;;;;5013802;28;20049;-74
2022/12/22 13:32:46;;;;;;;16.70;4.65;;;8.50;99.90;;;;;;5049928;28;20061;-67
2022/12/22 13:35:22;;;;;;;16.77;5.70;;;8.60;99.90;;;;;;5048220;28;20052;-67
2022/12/22 13:37:49;;;;;;;17.48;5.15;;;8.60;99.90;;;;;;5042144;28;20080;-69
2022/12/22 13:40:16;;;;;;;13.02;4.22;;;8.60;99.90;;;;;;5045950;28;20045;-67
2022/12/22 13:42:50;;;;;;;13.15;4.70;;;8.60;99.90;;;;;;5048317;28;20132;-71
2022/12/22 13:45:30;;;;;;;15.57;4.53;;;8.60;99.90;;;;;;5049712;28;20048;-67
2022/12/22 13:47:59;;;;;;;11.55;4.57;;;8.60;99.90;;;;;;5046656;28;20048;-70
2022/12/22 13:50:36;;;;;;;11.23;4.18;;;8.60;99.90;;;;;;5043345;28;20045;-67
2022/12/22 13:53:06;;;;;;;15.00;4.57;;;8.60;99.90;;;;;;5046550;28;20580;-67
2022/12/22 13:55:32;;;;;;;10.80;4.32;;;8.60;99.90;;;;;;5035845;28;20759;-68
2022/12/22 13:58:21;;;;;;;14.02;5.20;;;8.60;99.90;;;;;;5045754;28;20324;-66
2022/12/22 14:01:19;;;;;;;15.77;4.20;;;8.60;99.90;;;;;;5042626;28;20115;-70
2022/12/22 14:03:56;;;;;;;17.33;4.63;;;8.70;99.90;;;;;;5042281;28;20064;-69
2022/12/22 14:06:31;;;;;;;12.13;3.85;;;8.60;99.90;;;;;;5027404;28;20140;-67
2022/12/22 14:09:10;;;;;;;12.73;4.00;;;8.70;99.90;;;;;;5044358;28;20048;-68
2022/12/22 14:11:36;;;;;;;12.80;3.58;;;8.60;99.90;;;;;;5045395;28;20045;-67
2022/12/22 14:14:09;;;;;;;9.32;4.00;;;8.70;99.90;;;;;;5046978;28;20118;-69
2022/12/22 14:16:42;;;;;;;9.43;3.63;;;8.60;99.90;;;;;;5045623;28;20052;-67
2022/12/22 14:19:13;;;;;;;17.00;4.10;;;8.60;99.90;;;;;;5043131;28;20037;-67
2022/12/22 14:21:39;;;;;;;14.32;4.72;;;8.60;99.90;;;;;;5042699;28;20119;-68
2022/12/22 14:24:09;;;;;;;14.18;4.15;;;8.60;99.90;;;;;;5043896;28;20114;-67
2022/12/22 14:26:36;;;;;;;12.05;4.50;;;8.60;99.90;;;;;;5044959;28;20389;-67
2022/12/22 14:29:02;;;;;;;14.90;4.15;;;8.60;99.90;;;;;;5039057;28;20160;-68
2022/12/22 14:31:28;;;;;;;12.23;3.90;;;8.70;99.90;;;;;;5045689;28;20061;-68
2022/12/22 14:34:04;;;;;;;14.32;4.22;;;8.60;99.90;;;;;;5047747;28;20041;-67
2022/12/22 14:36:44;;;;;;;;;;;8.60;99.90;;;;;;5047157;28;20050;-67
2022/12/22 14:39:24;;;;;;;13.13;4.30;;;8.60;99.90;;;;;;5045872;28;19924;-68
2022/12/22 14:41:56;;;;;;;13.52;4.00;;;8.60;99.90;;;;;;5041321;28;20041;-67
2022/12/22 14:44:24;;;;;;;13.15;3.92;;;8.60;99.90;;;;;;5035459;28;20502;-67
2022/12/22 14:47:16;;;;;;;11.98;3.88;;;8.60;99.90;;;;;;5062979;28;20123;-67
2022/12/22 14:49:54;;;;;;;10.13;3.80;;;8.50;99.90;;;;;;5045155;28;20828;-67
2022/12/22 14:52:42;;;;;;;11.15;3.17;;;8.50;99.90;;;;;;5046379;28;20045;-72
2022/12/22 14:55:29;;;;;;;11.45;3.60;;;8.50;99.90;;;;;;5037230;28;20363;-67
2022/12/22 14:58:08;;;;;;;9.10;3.20;;;8.50;99.90;;;;;;5048414;28;20222;-67
2022/12/22 15:00:39;;;;;;;10.85;3.50;;;8.50;99.90;;;;;;5034450;28;20045;-67
2022/12/22 15:03:35;;;;;;;11.55;3.10;;;8.40;99.90;;;;;;5044954;28;20049;-67
2022/12/22 15:06:30;;;;;;;11.35;2.90;;;8.40;99.90;;;;;;5036940;28;20106;-67
2022/12/22 15:09:07;;;;;;;11.45;3.30;;;8.30;99.90;;;;;;5047421;28;20055;-69
2022/12/22 15:11:36;;;;;;;11.77;2.95;;;8.30;99.90;;;;;;5070740;28;20130;-67
2022/12/22 15:14:03;;;;;;;10.68;3.53;;;8.30;99.90;;;;;;5061773;28;20040;-67
2022/12/22 15:16:30;;;;;;;9.25;3.20;;;8.30;99.90;;;;;;5085949;28;20576;-68
2022/12/22 15:18:56;;;;;;;9.75;2.72;;;8.30;99.90;;;;;;5045132;28;20470;-66
2022/12/22 15:21:22;;;;;;;12.18;3.80;;;8.30;99.90;;;;;;5049264;28;20045;-72
2022/12/22 15:23:48;;;;;;;9.18;3.17;;;8.30;99.90;;;;;;5028644;28;20053;-67
2022/12/22 15:26:14;;;;;;;13.75;3.00;;;8.30;99.90;;;;;;5047514;28;20045;-67
2022/12/22 15:28:40;;;;;;;7.93;2.88;;;8.20;99.90;;;;;;5069007;28;20045;-67
2022/12/22 15:31:15;;;;;;;8.73;2.60;;;8.20;99.90;;;;;;5045757;28;20574;-66
2022/12/22 15:33:42;;;;;;;10.55;3.00;;;8.20;99.90;;;;;;5052543;28;20100;-67
2022/12/22 15:36:13;;;;;;;12.13;3.03;;;8.20;99.90;;;;;;5042228;28;20045;-68
2022/12/22 15:38:39;;;;;;;11.48;3.60;;;8.20;99.90;;;;;;5046805;28;20055;-67
2022/12/22 15:41:06;;;;;;;9.93;3.17;;;8.20;99.90;;;;;;5050857;28;20041;-68
2022/12/22 15:43:34;;;;;;;11.25;2.90;;;8.20;99.90;;;;;;5045595;28;20121;-69
2022/12/22 15:46:01;;;;;;;7.57;3.08;;;8.20;99.90;;;;;;5049340;28;20053;-67
2022/12/22 15:48:34;;;;;;;11.05;3.15;;;8.20;99.90;;;;;;5035114;28;20056;-66
2022/12/22 15:51:03;;;;;;;12.20;3.45;;;8.10;99.90;;;;;;5052226;28;20064;-67
2022/12/22 15:53:30;;;;;;;9.55;3.17;;;8.10;99.90;;;;;;5049125;28;20048;-73
2022/12/22 15:55:57;;;;;;;10.65;3.40;;;8.10;99.90;;;;;;5048426;28;20045;-66
2022/12/22 15:58:27;;;;;;;10.68;3.70;;;8.10;99.90;;;;;;5047280;28;20140;-67
2022/12/22 16:00:53;;;;;;;10.45;3.70;;;8.00;99.90;;;;;;5049494;28;20045;-68
2022/12/22 16:03:19;;;;;;;12.50;3.70;;;8.10;99.90;;;;;;5040841;28;20091;-68
2022/12/22 16:05:45;;;;;;;15.85;4.80;;;8.10;99.90;;;;;;5041015;28;20132;-74
2022/12/22 16:08:22;;;;;;;16.65;4.50;;;8.10;99.90;;;;;;5042338;28;20087;-69
2022/12/22 16:10:49;;;;;;;13.93;5.40;;;8.10;99.90;;;;;;5038566;28;20044;-68
2022/12/22 16:13:25;;;;;;;12.00;4.28;;;8.00;99.90;;;;;;5054468;28;20045;-68
2022/12/22 16:15:50;;;;;;;14.73;4.85;;;8.00;99.90;;;;;;5038330;28;20669;-70
2022/12/22 16:18:16;;;;;;;12.20;4.70;;;8.10;99.90;;;;;;5037539;28;20115;-70
2022/12/22 16:20:43;;;;;;;14.82;5.45;;;8.10;99.90;;;;;;5036000;28;20041;-68
2022/12/22 16:23:18;;;;;;;11.45;5.82;;;8.00;99.90;;;;;;5052311;28;20053;-66
2022/12/22 16:25:45;;;;;;;12.30;5.38;;;8.00;99.90;;;;;;5034783;28;20045;-68
2022/12/22 16:28:23;;;;;;;13.43;5.65;;;8.00;99.90;;;;;;5052632;28;20125;-69
2022/12/22 16:30:49;;;;;;;12.60;5.75;;;8.00;99.90;;;;;;5050760;28;20124;-65
2022/12/22 16:33:15;;;;;;;11.32;5.43;;;8.00;99.90;;;;;;5048542;28;20860;-70
2022/12/22 16:35:41;;;;;;;11.48;5.32;;;7.90;99.90;;;;;;5045038;28;20146;-68
2022/12/22 16:38:07;;;;;;;13.60;5.28;;;7.90;99.90;;;;;;5051662;28;20077;-68
2022/12/22 16:40:46;;;;;;;12.13;5.40;;;7.90;99.90;;;;;;5052771;28;20047;-72
2022/12/22 16:43:41;;;;;;;12.05;5.38;;;7.90;99.90;;;;;;5053363;28;20419;-70